sensor_id;sensor_type;location;lat;lon;timestamp;pressure;altitude;pressure_sealevel;temperature;humidity
21153;BME280;10734;44.792;20.482;2023-03-25T08:30:10;99544.88;;;17.78;nan
21153;BME280;10734;44.792;20.482;2023-03-25T08:32:36;99548.88;;;17.64;nan
21153;BME280;10734;44.792;20.482;2023-03-25T08:35:06;99544.44;;;17.54;nan
21153;BME280;10734;44.792;20.482;2023-03-25T08:37:33;99553.88;;;17.59;nan
21153;BME280;10734;44.792;20.482;2023-03-25T08:40:01;99559.31;;;17.69;nan
21153;BME280;10734;44.792;20.482;2023-03-25T08:42:32;99563.91;;;17.59;nan
21153;BME280;10734;44.792;20.482;2023-03-25T08:45:00;99553.00;;;17.68;nan
21153;BME280;10734;44.792;20.482;2023-03-25T08:47:27;99553.88;;;18.08;nan
21153;BME280;10734;44.792;20.482;2023-03-25T08:49:56;99553.16;;;18.53;nan
21153;BME280;10734;44.792;20.482;2023-03-25T08:52:23;99552.41;;;18.98;nan
21153;BME280;10734;44.792;20.482;2023-03-25T08:54:50;99543.69;;;19.40;nan
21153;BME280;10734;44.792;20.482;2023-03-25T08:57:17;99551.56;;;19.78;nan
21153;BME280;10734;44.792;20.482;2023-03-25T08:59:45;99555.63;;;19.74;nan
21153;BME280;10734;44.792;20.482;2023-03-25T09:02:12;99552.38;;;19.25;nan
21153;BME280;10734;44.792;20.482;2023-03-25T09:04:41;99549.84;;;18.96;nan
21153;BME280;10734;44.792;20.482;2023-03-25T09:07:07;99549.38;;;18.73;nan
21153;BME280;10734;44.792;20.482;2023-03-25T09:09:38;99547.09;;;18.68;nan
21153;BME280;10734;44.792;20.482;2023-03-25T09:12:05;99553.16;;;18.53;nan
21153;BME280;10734;44.792;20.482;2023-03-25T09:14:32;99549.81;;;18.22;nan
21153;BME280;10734;44.792;20.482;2023-03-25T09:17:00;99565.06;;;17.95;nan
21153;BME280;10734;44.792;20.482;2023-03-25T09:19:26;99555.31;;;17.54;nan
21153;BME280;10734;44.792;20.482;2023-03-25T09:21:54;99556.63;;;17.49;nan
21153;BME280;10734;44.792;20.482;2023-03-25T09:24:20;99553.69;;;17.02;nan
21153;BME280;10734;44.792;20.482;2023-03-25T09:26:52;99564.13;;;17.07;nan
21153;BME280;10734;44.792;20.482;2023-03-25T09:29:18;99571.28;;;16.98;nan
21153;BME280;10734;44.792;20.482;2023-03-25T09:31:46;99569.00;;;16.73;nan
21153;BME280;10734;44.792;20.482;2023-03-25T09:34:12;99562.78;;;16.51;nan
21153;BME280;10734;44.792;20.482;2023-03-25T09:36:41;99574.56;;;16.62;nan
21153;BME280;10734;44.792;20.482;2023-03-25T09:39:08;99566.09;;;16.55;nan
21153;BME280;10734;44.792;20.482;2023-03-25T10:26:29;99553.44;;;17.93;nan
21153;BME280;10734;44.792;20.482;2023-03-25T10:28:58;99551.28;;;17.96;nan
21153;BME280;10734;44.792;20.482;2023-03-25T10:31:31;99550.56;;;18.14;nan
21153;BME280;10734;44.792;20.482;2023-03-25T10:34:00;99552.75;;;18.01;nan
21153;BME280;10734;44.792;20.482;2023-03-25T10:36:34;99557.75;;;17.76;nan
21153;BME280;10734;44.792;20.482;2023-03-25T10:39:04;99544.69;;;17.31;nan
21153;BME280;10734;44.792;20.482;2023-03-25T10:41:33;99555.53;;;16.62;nan
21153;BME280;10734;44.792;20.482;2023-03-25T10:44:07;99549.19;;;16.51;nan
21153;BME280;10734;44.792;20.482;2023-03-25T10:59:01;99537.97;;;17.35;nan
21153;BME280;10734;44.792;20.482;2023-03-25T11:01:34;99539.09;;;17.42;nan
21153;BME280;10734;44.792;20.482;2023-03-25T11:04:06;99529.53;;;17.48;nan
21153;BME280;10734;44.792;20.482;2023-03-25T11:06:33;99529.97;;;17.43;nan
21153;BME280;10734;44.792;20.482;2023-03-25T11:11:39;99514.47;;;17.73;nan
21153;BME280;10734;44.792;20.482;2023-03-25T11:14:07;99510.59;;;17.85;nan
21153;BME280;10734;44.792;20.482;2023-03-25T11:16:35;99515.84;;;18.06;nan
21153;BME280;10734;44.792;20.482;2023-03-25T11:19:06;99515.88;;;17.96;nan
21153;BME280;10734;44.792;20.482;2023-03-25T11:21:38;99512.19;;;17.78;nan
21153;BME280;10734;44.792;20.482;2023-03-25T11:24:05;99511.75;;;17.73;nan
21153;BME280;10734;44.792;20.482;2023-03-25T11:26:36;99511.19;;;17.60;nan
21153;BME280;10734;44.792;20.482;2023-03-25T11:29:23;99498.16;;;17.63;nan
21153;BME280;10734;44.792;20.482;2023-03-25T11:31:56;99499.97;;;17.92;nan
21153;BME280;10734;44.792;20.482;2023-03-25T11:34:23;99496.50;;;18.09;nan
21153;BME280;10734;44.792;20.482;2023-03-25T11:41:47;99478.81;;;18.51;nan
21153;BME280;10734;44.792;20.482;2023-03-25T11:44:30;99475.88;;;18.99;nan
21153;BME280;10734;44.792;20.482;2023-03-25T11:47:00;99463.84;;;19.46;nan
21153;BME280;10734;44.792;20.482;2023-03-25T11:49:29;99466.88;;;19.43;nan
21153;BME280;10734;44.792;20.482;2023-03-25T11:52:02;99460.69;;;19.76;nan
21153;BME280;10734;44.792;20.482;2023-03-25T11:54:30;99462.91;;;19.55;nan
21153;BME280;10734;44.792;20.482;2023-03-25T11:56:59;99463.00;;;19.09;nan
21153;BME280;10734;44.792;20.482;2023-03-25T11:59:44;99458.66;;;18.34;nan
21153;BME280;10734;44.792;20.482;2023-03-25T12:10:25;99440.75;;;18.86;nan
21153;BME280;10734;44.792;20.482;2023-03-25T12:15:35;99440.94;;;17.83;nan
21153;BME280;10734;44.792;20.482;2023-03-25T12:23:25;99424.41;;;19.04;nan
21153;BME280;10734;44.792;20.482;2023-03-25T12:26:01;99421.13;;;19.01;nan
21153;BME280;10734;44.792;20.482;2023-03-25T12:28:44;99429.53;;;17.50;nan
21153;BME280;10734;44.792;20.482;2023-03-25T12:34:16;99420.47;;;18.43;nan
21153;BME280;10734;44.792;20.482;2023-03-25T12:36:48;99417.13;;;18.95;nan
21153;BME280;10734;44.792;20.482;2023-03-25T12:47:43;99410.31;;;19.53;nan
21153;BME280;10734;44.792;20.482;2023-03-25T12:50:34;99401.88;;;19.46;nan
21153;BME280;10734;44.792;20.482;2023-03-25T12:55:51;99402.47;;;19.32;nan
21153;BME280;10734;44.792;20.482;2023-03-25T13:03:34;99386.28;;;18.77;nan
21153;BME280;10734;44.792;20.482;2023-03-25T13:08:53;99380.03;;;18.39;nan
21153;BME280;10734;44.792;20.482;2023-03-25T13:11:25;99381.63;;;18.14;nan
21153;BME280;10734;44.792;20.482;2023-03-25T13:13:54;99381.00;;;17.83;nan
21153;BME280;10734;44.792;20.482;2023-03-25T13:16:24;99372.16;;;17.81;nan
21153;BME280;10734;44.792;20.482;2023-03-25T13:21:21;99369.28;;;17.63;nan
21153;BME280;10734;44.792;20.482;2023-03-25T13:24:13;99371.44;;;17.69;nan
21153;BME280;10734;44.792;20.482;2023-03-25T13:26:43;99364.38;;;17.86;nan
21153;BME280;10734;44.792;20.482;2023-03-25T13:29:21;99361.56;;;17.78;nan
21153;BME280;10734;44.792;20.482;2023-03-25T13:31:51;99366.41;;;17.84;nan
21153;BME280;10734;44.792;20.482;2023-03-25T13:34:26;99366.75;;;17.99;nan
21153;BME280;10734;44.792;20.482;2023-03-25T13:45:02;99345.69;;;18.28;nan
21153;BME280;10734;44.792;20.482;2023-03-25T13:47:38;99342.81;;;18.48;nan
21153;BME280;10734;44.792;20.482;2023-03-25T13:50:16;99338.03;;;18.77;nan
21153;BME280;10734;44.792;20.482;2023-03-25T13:52:45;99335.31;;;18.77;nan
21153;BME280;10734;44.792;20.482;2023-03-25T13:55:15;99339.13;;;18.84;nan
21153;BME280;10734;44.792;20.482;2023-03-25T14:00:30;99328.56;;;18.36;nan
21153;BME280;10734;44.792;20.482;2023-03-25T14:05:44;99314.66;;;18.75;nan
21153;BME280;10734;44.792;20.482;2023-03-25T14:15:55;99306.84;;;20.77;nan
21153;BME280;10734;44.792;20.482;2023-03-25T14:18:23;99298.13;;;21.06;nan
21153;BME280;10734;44.792;20.482;2023-03-25T14:20:51;99302.38;;;21.33;nan
21153;BME280;10734;44.792;20.482;2023-03-25T14:23:18;99298.81;;;20.92;nan
21153;BME280;10734;44.792;20.482;2023-03-25T14:25:53;99297.59;;;21.43;nan
21153;BME280;10734;44.792;20.482;2023-03-25T14:31:16;99288.78;;;22.20;nan
21153;BME280;10734;44.792;20.482;2023-03-25T14:39:07;99277.09;;;23.86;nan
21153;BME280;10734;44.792;20.482;2023-03-25T14:41:54;99266.31;;;24.20;nan
21153;BME280;10734;44.792;20.482;2023-03-25T14:44:22;99263.97;;;24.39;nan
21153;BME280;10734;44.792;20.482;2023-03-25T14:46:58;99262.00;;;24.47;nan
21153;BME280;10734;44.792;20.482;2023-03-25T14:52:17;99270.44;;;23.65;nan
21153;BME280;10734;44.792;20.482;2023-03-25T14:54:48;99284.34;;;23.64;nan
21153;BME280;10734;44.792;20.482;2023-03-25T14:57:21;99282.50;;;23.26;nan
21153;BME280;10734;44.792;20.482;2023-03-25T14:59:52;99281.53;;;22.27;nan
21153;BME280;10734;44.792;20.482;2023-03-25T15:02:20;99286.66;;;21.35;nan
21153;BME280;10734;44.792;20.482;2023-03-25T15:04:54;99288.03;;;21.07;nan
21153;BME280;10734;44.792;20.482;2023-03-25T15:10:05;99297.75;;;20.52;nan
21153;BME280;10734;44.792;20.482;2023-03-25T15:12:34;99303.97;;;19.77;nan
21153;BME280;10734;44.792;20.482;2023-03-25T15:15:06;99300.19;;;19.44;nan
21153;BME280;10734;44.792;20.482;2023-03-25T15:22:38;99279.78;;;18.51;nan
21153;BME280;10734;44.792;20.482;2023-03-25T15:25:12;99271.00;;;18.21;nan
21153;BME280;10734;44.792;20.482;2023-03-25T15:27:54;99252.94;;;17.92;nan
21153;BME280;10734;44.792;20.482;2023-03-25T15:33:22;99264.03;;;17.54;nan
